Time;durP1;ratioP1;P1;durP2;ratioP2;P2;SDS_P1;SDS_P2;PMS_P1;PMS_P2;Temp;Humidity;BMP_temperature;BMP_pressure;BME280_temperature;BME280_humidity;BME280_pressure;Samples;Min_cycle;Max_cycle;Signal;HPM_P1;HPM_P2
2023/07/01 00:00:24;;;;;;;;;;;;;;;23.82;63.49;100480.84;4983755;28;4081;-64
2023/07/01 00:02:57;;;;;;;;;;;;;;;23.80;63.47;100484.44;4984324;28;4035;-64
2023/07/01 00:05:23;;;;;;;;;;;;;;;23.80;63.34;100478.66;5000477;28;4174;-64
2023/07/01 00:07:50;;;;;;;;;;;;;;;23.81;63.08;100468.53;4986566;28;4174;-64
2023/07/01 00:10:16;;;;;;;;;;;;;;;23.80;63.39;100484.44;4988517;28;4552;-64
2023/07/01 00:12:44;;;;;;;;;;;;;;;23.79;63.16;100471.38;4983889;28;4046;-64
2023/07/01 00:15:10;;;;;;;;;;;;;;;23.80;63.10;100467.06;4984037;28;4164;-64
2023/07/01 00:17:37;;;;;;;;;;;;;;;23.78;63.02;100464.13;4986034;28;3999;-64
2023/07/01 00:20:03;;;;;;;;;;;;;;;23.80;63.19;100466.31;4988351;28;4197;-64
2023/07/01 00:22:30;;;;;;;;;;;;;;;23.80;63.14;100469.22;4984005;28;4499;-64
2023/07/01 00:24:56;;;;;;;;;;;;;;;23.79;63.29;100465.59;4981001;28;4140;-64
2023/07/01 00:27:23;;;;;;;;;;;;;;;23.79;63.10;100459.81;4984545;28;4131;-64
2023/07/01 00:29:49;;;;;;;;;;;;;;;23.78;63.20;100461.25;4999534;28;3983;-64
2023/07/01 00:32:16;;;;;;;;;;;;;;;23.78;62.97;100458.34;4984019;28;4074;-64
2023/07/01 00:34:43;;;;;;;;;;;;;;;23.78;62.79;100458.34;4984990;28;3980;-64
2023/07/01 00:37:09;;;;;;;;;;;;;;;23.77;62.95;100451.06;4982135;28;4058;-63
2023/07/01 00:39:36;;;;;;;;;;;;;;;23.78;62.94;100452.56;4985382;28;4191;-64
2023/07/01 00:42:02;;;;;;;;;;;;;;;23.77;63.11;100451.06;4984274;28;4508;-64
2023/07/01 00:44:28;;;;;;;;;;;;;;;23.77;63.13;100451.06;4998655;28;4159;-64
2023/07/01 00:46:55;;;;;;;;;;;;;;;23.77;62.85;100451.06;5002200;28;4054;-64
2023/07/01 00:49:21;;;;;;;;;;;;;;;23.77;62.89;100442.41;4987435;28;4153;-64
2023/07/01 00:51:48;;;;;;;;;;;;;;;23.77;62.94;100448.19;5001235;28;4147;-64
2023/07/01 00:54:14;;;;;;;;;;;;;;;23.76;62.82;100438.06;4999666;28;4163;-64
2023/07/01 00:56:41;;;;;;;;;;;;;;;23.77;62.93;100445.31;4984044;28;5066;-64
2023/07/01 00:59:07;;;;;;;;;;;;;;;23.77;62.82;100433.72;4984775;28;4188;-63
2023/07/01 01:01:34;;;;;;;;;;;;;;;23.76;62.94;100432.28;4984354;28;4249;-64
2023/07/01 01:04:23;;;;;;;;;;;;;;;23.76;62.98;100438.06;5001987;28;4044;-64
2023/07/01 01:06:51;;;;;;;;;;;;;;;23.76;62.96;100432.28;4985972;28;4424;-64
2023/07/01 01:09:17;;;;;;;;;;;;;;;23.76;62.98;100420.72;4982714;28;4049;-64
2023/07/01 01:11:45;;;;;;;;;;;;;;;23.76;62.82;100417.81;4984259;28;4927;-64
2023/07/01 01:14:11;;;;;;;;;;;;;;;23.75;62.96;100412.72;4971892;28;4205;-64
2023/07/01 01:16:38;;;;;;;;;;;;;;;23.75;62.99;100410.56;4982477;28;3950;-64
2023/07/01 01:19:07;;;;;;;;;;;;;;;23.75;62.67;100410.56;4982927;28;4179;-64
2023/07/01 01:21:34;;;;;;;;;;;;;;;23.74;63.00;100409.09;4998548;28;4263;-64
2023/07/01 01:24:03;;;;;;;;;;;;;;;23.75;62.98;100413.44;4989063;28;4039;-64
2023/07/01 01:26:32;;;;;;;;;;;;;;;23.74;62.99;100409.09;4982079;28;4244;-64
2023/07/01 01:28:58;;;;;;;;;;;;;;;23.75;62.92;100401.16;4942984;28;5086;-64
2023/07/01 01:31:28;;;;;;;;;;;;;;;23.75;63.00;100399.00;4981264;28;4134;-64
2023/07/01 01:33:55;;;;;;;;;;;;;;;23.75;62.74;100398.25;4984042;28;4153;-64
2023/07/01 01:36:23;;;;;;;;;;;;;;;23.75;62.83;100396.09;4984269;28;4131;-64
2023/07/01 01:38:50;;;;;;;;;;;;;;;23.74;62.88;100391.00;4999825;28;4111;-64
2023/07/01 01:41:23;;;;;;;;;;;;;;;23.74;63.00;100391.00;4988440;28;4175;-64
2023/07/01 01:43:52;;;;;;;;;;;;;;;23.74;62.86;100388.09;4983875;28;4119;-64
2023/07/01 01:46:19;;;;;;;;;;;;;;;23.74;62.84;100376.53;4982103;28;4129;-64
2023/07/01 01:48:45;;;;;;;;;;;;;;;23.73;62.92;100375.81;4984861;28;4257;-64
2023/07/01 01:51:12;;;;;;;;;;;;;;;23.73;62.75;100375.06;4992733;28;4198;-64
2023/07/01 01:53:39;;;;;;;;;;;;;;;23.72;62.72;100380.09;5003910;28;4132;-64
2023/07/01 01:56:05;;;;;;;;;;;;;;;23.72;62.86;100379.38;4989424;28;4040;-64
2023/07/01 01:58:32;;;;;;;;;;;;;;;23.72;62.83;100385.88;5000468;28;4278;-64
2023/07/01 02:00:58;;;;;;;;;;;;;;;23.72;62.96;100374.31;4999178;28;4368;-64
2023/07/01 02:03:25;;;;;;;;;;;;;;;23.71;62.67;100369.97;4985521;28;4102;-64
2023/07/01 02:05:52;;;;;;;;;;;;;;;23.71;62.99;100377.88;4996257;28;4095;-64
2023/07/01 02:08:20;;;;;;;;;;;;;;;23.71;62.84;100372.09;4987392;28;4058;-64
2023/07/01 02:10:47;;;;;;;;;;;;;;;23.71;62.75;100367.09;4989988;28;4305;-64
2023/07/01 02:13:14;;;;;;;;;;;;;;;23.71;62.82;100375.75;4983582;28;4193;-64
2023/07/01 02:15:40;;;;;;;;;;;;;;;23.71;62.75;100372.88;4988413;28;4185;-64
2023/07/01 02:18:07;;;;;;;;;;;;;;;23.70;62.81;100374.28;4984862;28;4216;-64
2023/07/01 02:20:34;;;;;;;;;;;;;;;23.71;62.96;100372.09;4986140;28;4036;-64
2023/07/01 02:23:00;;;;;;;;;;;;;;;23.69;62.92;100364.13;4985327;28;4062;-64
2023/07/01 02:25:27;;;;;;;;;;;;;;;23.70;62.95;100365.59;4983539;28;4036;-64
2023/07/01 02:27:53;;;;;;;;;;;;;;;23.69;62.99;100367.03;4987172;28;4120;-64
2023/07/01 02:30:20;;;;;;;;;;;;;;;23.69;62.99;100358.34;4984141;28;4183;-64
2023/07/01 02:32:46;;;;;;;;;;;;;;;23.69;62.78;100363.41;4982886;28;4254;-64
2023/07/01 02:35:13;;;;;;;;;;;;;;;23.70;62.93;100354.03;4986301;28;4262;-65
2023/07/01 02:37:39;;;;;;;;;;;;;;;23.68;62.90;100353.97;4998061;28;4249;-66
2023/07/01 02:40:06;;;;;;;;;;;;;;;23.68;63.00;100356.16;4985984;28;4123;-65
2023/07/01 02:42:32;;;;;;;;;;;;;;;23.69;62.99;100346.06;4986036;28;4189;-66
2023/07/01 02:44:59;;;;;;;;;;;;;;;23.69;62.82;100351.84;5000262;28;4208;-66
2023/07/01 02:47:25;;;;;;;;;;;;;;;23.67;63.06;100343.84;4986876;28;4031;-66
2023/07/01 02:49:52;;;;;;;;;;;;;;;23.67;62.84;100340.97;4984894;28;4170;-66
2023/07/01 02:52:18;;;;;;;;;;;;;;;23.68;62.97;100339.53;4988502;28;4151;-65
2023/07/01 02:54:45;;;;;;;;;;;;;;;23.67;62.90;100340.97;4989922;28;4218;-66
2023/07/01 02:57:11;;;;;;;;;;;;;;;23.67;62.89;100338.06;4981066;28;4072;-66
2023/07/01 02:59:38;;;;;;;;;;;;;;;23.67;62.91;100337.34;4985566;28;4274;-66
2023/07/01 03:02:04;;;;;;;;;;;;;;;23.67;62.75;100329.41;4986550;28;4143;-66
2023/07/01 03:04:32;;;;;;;;;;;;;;;23.66;62.92;100336.59;4984794;28;4035;-66
2023/07/01 03:06:59;;;;;;;;;;;;;;;23.67;62.82;100328.66;4990185;28;4018;-66
2023/07/01 03:09:25;;;;;;;;;;;;;;;23.67;62.83;100331.56;5006838;28;4210;-65
2023/07/01 03:11:54;;;;;;;;;;;;;;;23.65;63.01;100326.47;4986063;28;4011;-65
2023/07/01 03:14:21;;;;;;;;;;;;;;;23.65;62.94;100326.47;4984777;28;4145;-65
2023/07/01 03:16:49;;;;;;;;;;;;;;;23.67;62.96;100325.78;4986676;28;4174;-65
2023/07/01 03:19:16;;;;;;;;;;;;;;;23.65;63.11;100332.25;4983686;28;4877;-65
2023/07/01 03:21:44;;;;;;;;;;;;;;;23.64;62.96;100325.00;4985291;28;4191;-65
2023/07/01 03:24:10;;;;;;;;;;;;;;;23.65;62.72;100326.47;4981837;28;4045;-65
2023/07/01 03:26:37;;;;;;;;;;;;;;;23.66;62.87;100315.63;4981117;28;4123;-65
2023/07/01 03:29:03;;;;;;;;;;;;;;;23.65;62.82;100335.13;4997555;28;4024;-65
2023/07/01 03:31:32;;;;;;;;;;;;;;;23.64;62.83;100327.88;4982068;28;4166;-65
2023/07/01 03:33:59;;;;;;;;;;;;;;;23.64;63.00;100333.66;4980959;28;4266;-65
2023/07/01 03:36:25;;;;;;;;;;;;;;;23.64;62.75;100325.00;4982326;28;4272;-65
2023/07/01 03:38:52;;;;;;;;;;;;;;;23.64;63.01;100322.09;4986083;28;4189;-65
2023/07/01 03:41:19;;;;;;;;;;;;;;;23.63;62.88;100327.13;4981141;28;4041;-65
2023/07/01 03:43:45;;;;;;;;;;;;;;;23.63;62.79;100326.41;4983176;28;3943;-65
2023/07/01 03:46:12;;;;;;;;;;;;;;;23.63;62.93;100329.28;4981953;28;4167;-65
2023/07/01 03:48:38;;;;;;;;;;;;;;;23.63;62.69;100327.13;4981325;28;4477;-65
2023/07/01 03:51:05;;;;;;;;;;;;;;;23.63;62.71;100323.50;4981561;28;4271;-65
2023/07/01 03:53:31;;;;;;;;;;;;;;;23.63;63.01;100320.63;4985131;28;4272;-65
2023/07/01 03:55:57;;;;;;;;;;;;;;;23.63;63.07;100320.63;4982047;28;3925;-65
2023/07/01 03:58:24;;;;;;;;;;;;;;;23.63;62.82;100326.41;4983648;28;4164;-65
2023/07/01 04:00:52;;;;;;;;;;;;;;;23.63;62.87;100320.63;4982074;28;5169;-65
2023/07/01 04:03:21;;;;;;;;;;;;;;;23.61;62.65;100311.91;4983385;28;3914;-65
2023/07/01 04:05:48;;;;;;;;;;;;;;;23.63;62.70;100320.63;4983048;28;4043;-65
2023/07/01 04:08:14;;;;;;;;;;;;;;;23.62;62.79;100319.16;4981645;28;4224;-65
2023/07/01 04:10:40;;;;;;;;;;;;;;;23.62;62.88;100310.50;4981525;28;4190;-65
2023/07/01 04:13:07;;;;;;;;;;;;;;;23.61;62.63;100318.41;4983300;28;4093;-65
2023/07/01 04:15:33;;;;;;;;;;;;;;;23.63;62.71;100323.50;4986570;28;4105;-65
2023/07/01 04:18:00;;;;;;;;;;;;;;;23.63;62.83;100317.72;4984321;28;4179;-65
2023/07/01 04:20:26;;;;;;;;;;;;;;;23.62;62.59;100330.72;4985641;28;4216;-65
2023/07/01 04:22:53;;;;;;;;;;;;;;;23.62;62.79;100319.16;4984992;28;4183;-65
2023/07/01 04:25:19;;;;;;;;;;;;;;;23.61;62.85;100311.91;4981632;28;4125;-65
2023/07/01 04:27:46;;;;;;;;;;;;;;;23.61;62.85;100306.13;4980707;28;3959;-65
2023/07/01 04:30:13;;;;;;;;;;;;;;;23.60;62.83;100304.66;4981033;28;4236;-65
2023/07/01 04:32:39;;;;;;;;;;;;;;;23.61;62.82;100300.34;4983341;28;4155;-65
2023/07/01 04:35:06;;;;;;;;;;;;;;;23.60;62.67;100299.59;4999263;28;4203;-65
2023/07/01 04:37:32;;;;;;;;;;;;;;;23.60;62.59;100296.00;4985498;28;4081;-65
2023/07/01 04:40:00;;;;;;;;;;;;;;;23.60;62.67;100302.50;4986405;28;4019;-65
2023/07/01 04:42:26;;;;;;;;;;;;;;;23.60;62.71;100304.66;4986830;28;4182;-65
2023/07/01 04:44:56;;;;;;;;;;;;;;;23.60;62.68;100296.72;4983176;28;5255;-65
2023/07/01 04:47:22;;;;;;;;;;;;;;;23.59;62.79;100289.47;4984413;28;4167;-65
2023/07/01 04:49:52;;;;;;;;;;;;;;;23.60;62.88;100293.09;4983937;28;4146;-65
2023/07/01 04:52:20;;;;;;;;;;;;;;;23.60;62.75;100290.22;4982544;28;4115;-65
2023/07/01 04:54:46;;;;;;;;;;;;;;;23.60;62.59;100287.31;4983647;28;4482;-65
2023/07/01 04:57:13;;;;;;;;;;;;;;;23.59;62.43;100282.94;4983840;28;4114;-65
2023/07/01 04:59:39;;;;;;;;;;;;;;;23.60;62.70;100281.53;4987630;28;4362;-65
2023/07/01 05:02:05;;;;;;;;;;;;;;;23.59;62.81;100292.38;4982763;28;4236;-65
2023/07/01 05:04:32;;;;;;;;;;;;;;;23.59;62.63;100283.69;4985277;28;4022;-65
2023/07/01 05:06:58;;;;;;;;;;;;;;;23.59;62.76;100286.59;4987493;28;4177;-65
2023/07/01 05:09:25;;;;;;;;;;;;;;;23.58;62.78;100284.38;4983358;28;4116;-65
2023/07/01 05:11:51;;;;;;;;;;;;;;;23.57;62.79;100285.78;4979828;28;4152;-68
2023/07/01 05:14:18;;;;;;;;;;;;;;;23.66;62.46;100289.59;4984399;28;4022;-69
2023/07/01 05:16:44;;;;;;;;;;;;;;;23.66;62.73;100278.06;4983466;28;4147;-68
2023/07/01 05:19:11;;;;;;;;;;;;;;;23.66;62.41;100284.56;4984717;28;4199;-69
2023/07/01 05:21:39;;;;;;;;;;;;;;;23.66;62.53;100283.81;4988290;28;4087;-68
2023/07/01 05:24:08;;;;;;;;;;;;;;;23.64;62.61;100287.41;4998446;28;4168;-69
2023/07/01 05:26:34;;;;;;;;;;;;;;;23.65;62.39;100283.09;4989865;28;4022;-68
2023/07/01 05:29:01;;;;;;;;;;;;;;;23.66;62.18;100290.34;4987306;28;4033;-68
2023/07/01 05:31:27;;;;;;;;;;;;;;;23.67;62.15;100291.09;4983092;28;4095;-69
2023/07/01 05:33:54;;;;;;;;;;;;;;;23.66;62.09;100301.16;4986148;28;4859;-68
2023/07/01 05:36:20;;;;;;;;;;;;;;;23.67;61.98;100288.22;4987591;28;4150;-68
2023/07/01 05:38:47;;;;;;;;;;;;;;;23.66;61.90;100289.59;4986853;28;4044;-69
2023/07/01 05:41:15;;;;;;;;;;;;;;;23.66;62.25;100293.22;4988186;28;4123;-69
2023/07/01 05:43:41;;;;;;;;;;;;;;;23.66;62.23;100281.66;4985139;28;4083;-69
2023/07/01 05:46:08;;;;;;;;;;;;;;;23.66;62.17;100289.59;4988330;28;4138;-68
2023/07/01 05:48:34;;;;;;;;;;;;;;;23.65;62.13;100291.78;4983163;28;4401;-68
2023/07/01 05:51:00;;;;;;;;;;;;;;;23.66;62.01;100289.59;4984283;28;4030;-68
2023/07/01 05:53:27;;;;;;;;;;;;;;;23.70;62.29;100284.66;4978954;28;4080;-73
2023/07/01 05:55:53;;;;;;;;;;;;;;;23.68;62.29;100290.38;4983174;28;4041;-71
2023/07/01 05:58:20;;;;;;;;;;;;;;;23.68;62.01;100286.78;4981064;28;4033;-71
2023/07/01 06:00:46;;;;;;;;;;;;;;;23.66;62.04;100283.81;4986974;28;4113;-71
2023/07/01 06:03:14;;;;;;;;;;;;;;;23.64;62.12;100287.41;4999619;28;4413;-71
2023/07/01 06:05:40;;;;;;;;;;;;;;;23.63;61.97;100288.84;4989102;28;4081;-71
2023/07/01 06:08:07;;;;;;;;;;;;;;;23.63;61.88;100283.06;5006032;28;4227;-71
2023/07/01 06:10:34;;;;;;;;;;;;;;;23.61;60.87;100277.22;4984793;28;3988;-70
2023/07/01 06:13:00;;;;;;;;;;;;;;;23.51;60.68;100274.81;4986741;28;4095;-65
2023/07/01 06:15:26;;;;;;;;;;;;;;;23.08;59.86;100279.53;4987390;28;4159;-65
2023/07/01 06:17:53;;;;;;;;;;;;;;;22.98;59.37;100279.97;4989920;28;4056;-66
2023/07/01 06:20:19;;;;;;;;;;;;;;;23.09;59.42;100277.38;4985533;28;5250;-65
2023/07/01 06:22:46;;;;;;;;;;;;;;;23.00;56.47;100270.66;4986652;28;4214;-64
2023/07/01 06:25:13;;;;;;;;;;;;;;;22.72;56.40;100276.38;4986414;28;4154;-65
2023/07/01 06:27:39;;;;;;;;;;;;;;;22.63;57.02;100274.69;4985529;28;3924;-65
2023/07/01 06:30:06;;;;;;;;;;;;;;;22.84;56.49;100265.19;4990351;28;4053;-65
2023/07/01 06:32:32;;;;;;;;;;;;;;;22.98;56.53;100261.94;4987280;28;4050;-65
2023/07/01 06:34:59;;;;;;;;;;;;;;;22.98;56.38;100261.94;4989685;28;4177;-64
2023/07/01 06:37:25;;;;;;;;;;;;;;;22.95;56.73;100264.03;4983923;28;4463;-64
2023/07/01 06:39:52;;;;;;;;;;;;;;;22.86;56.15;100256.56;4987500;28;4155;-64
2023/07/01 06:42:18;;;;;;;;;;;;;;;22.76;56.62;100262.06;4984442;28;4468;-65
2023/07/01 06:44:45;;;;;;;;;;;;;;;22.78;56.57;100262.13;4982567;28;4292;-65
2023/07/01 06:47:11;;;;;;;;;;;;;;;22.90;56.59;100259.53;4983095;28;4260;-65
2023/07/01 06:49:37;;;;;;;;;;;;;;;22.95;55.94;100260.38;4984650;28;4171;-65
2023/07/01 06:52:04;;;;;;;;;;;;;;;23.03;55.71;100262.78;4985541;28;4294;-65
2023/07/01 06:54:31;;;;;;;;;;;;;;;22.98;55.45;100259.78;4987091;28;4829;-65
2023/07/01 06:56:57;;;;;;;;;;;;;;;22.94;55.38;100253.16;4984717;28;4077;-65
2023/07/01 06:59:23;;;;;;;;;;;;;;;22.92;55.35;100253.09;4982854;28;4359;-64
2023/07/01 07:01:50;;;;;;;;;;;;;;;22.94;55.56;100244.50;4983900;28;4216;-65
2023/07/01 07:04:16;;;;;;;;;;;;;;;22.90;54.93;100245.09;4981454;28;4179;-65
2023/07/01 07:06:43;;;;;;;;;;;;;;;23.00;54.61;100238.91;4987682;28;4063;-65
2023/07/01 07:09:09;;;;;;;;;;;;;;;23.09;54.47;100236.94;4983396;28;4154;-65
2023/07/01 07:11:36;;;;;;;;;;;;;;;23.09;53.63;100236.94;4984404;28;5166;-65
2023/07/01 07:14:02;;;;;;;;;;;;;;;23.10;53.29;100242.03;4984268;28;4155;-65
2023/07/01 07:16:29;;;;;;;;;;;;;;;23.05;52.75;100239.75;4989132;28;4055;-65
2023/07/01 07:18:55;;;;;;;;;;;;;;;22.95;53.12;100238.03;4982956;28;4139;-65
2023/07/01 07:21:21;;;;;;;;;;;;;;;23.06;53.24;100236.16;4983573;28;4027;-65
2023/07/01 07:23:48;;;;;;;;;;;;;;;23.07;52.46;100234.03;4985292;28;4068;-64
2023/07/01 07:26:14;;;;;;;;;;;;;;;23.10;51.24;100226.88;4982573;28;4146;-65
2023/07/01 07:28:41;;;;;;;;;;;;;;;23.04;51.70;100229.59;4986266;28;4049;-65
2023/07/01 07:31:07;;;;;;;;;;;;;;;23.00;51.63;100233.88;4987601;28;4191;-64
2023/07/01 07:33:34;;;;;;;;;;;;;;;22.99;51.73;100223.72;4985344;28;4155;-64
2023/07/01 07:36:00;;;;;;;;;;;;;;;23.00;51.50;100225.22;4987898;28;4052;-64
2023/07/01 07:38:26;;;;;;;;;;;;;;;23.06;51.68;100226.78;4986851;28;4451;-65
2023/07/01 07:40:53;;;;;;;;;;;;;;;23.10;51.38;100226.88;4989729;28;4110;-64
2023/07/01 07:43:19;;;;;;;;;;;;;;;23.12;51.40;100224.03;4983042;28;4303;-64
2023/07/01 07:45:46;;;;;;;;;;;;;;;23.04;49.89;100215.16;4985557;28;3957;-64
2023/07/01 07:48:12;;;;;;;;;;;;;;;23.05;50.35;100214.50;4988027;28;4112;-65
2023/07/01 07:50:38;;;;;;;;;;;;;;;23.06;49.27;100221.72;4984006;28;4169;-64
2023/07/01 07:53:05;;;;;;;;;;;;;;;23.12;47.85;100215.38;4981405;28;4141;-65
2023/07/01 07:55:35;;;;;;;;;;;;;;;23.10;46.73;100215.31;4985238;28;4067;-65
2023/07/01 07:58:01;;;;;;;;;;;;;;;23.05;47.01;100208.00;4984582;28;4306;-64
2023/07/01 08:00:28;;;;;;;;;;;;;;;23.09;47.16;100223.25;4977550;28;4050;-64
2023/07/01 08:02:54;;;;;;;;;;;;;;;23.09;46.70;100208.06;4980602;28;4997;-65
2023/07/01 08:05:26;;;;;;;;;;;;;;;23.09;47.38;100205.94;4983910;28;4135;-65
2023/07/01 08:07:52;;;;;;;;;;;;;;;23.13;47.54;100202.41;4983487;28;4172;-67
2023/07/01 08:10:19;;;;;;;;;;;;;;;23.23;48.33;100199.78;4982723;28;4326;-67
2023/07/01 08:12:45;;;;;;;;;;;;;;;23.26;48.11;100206.31;4998051;28;4614;-68
2023/07/01 08:15:12;;;;;;;;;;;;;;;23.24;48.53;100201.22;4981746;28;4326;-67
2023/07/01 08:17:38;;;;;;;;;;;;;;;23.24;48.54;100203.38;4982659;28;4211;-67
2023/07/01 08:20:05;;;;;;;;;;;;;;;23.25;48.78;100199.81;4987208;28;4059;-67
2023/07/01 08:22:31;;;;;;;;;;;;;;;23.27;49.28;100194.06;4985538;28;4222;-67
2023/07/01 08:24:58;;;;;;;;;;;;;;;23.28;49.33;100201.34;4983237;28;4008;-67
2023/07/01 08:27:24;;;;;;;;;;;;;;;23.30;49.35;100194.88;4986233;28;4222;-67
2023/07/01 08:29:51;;;;;;;;;;;;;;;23.31;49.74;100182.63;4984536;28;4116;-67
2023/07/01 08:32:17;;;;;;;;;;;;;;;23.31;49.75;100176.84;4983202;28;4213;-67
2023/07/01 08:34:43;;;;;;;;;;;;;;;23.34;50.41;100174.72;4985647;28;3998;-67
2023/07/01 08:37:10;;;;;;;;;;;;;;;23.33;50.60;100170.38;4984504;28;4113;-67
2023/07/01 08:39:36;;;;;;;;;;;;;;;23.34;50.77;100169.72;4990044;28;4109;-67
2023/07/01 08:42:04;;;;;;;;;;;;;;;23.35;50.86;100161.78;4985273;28;4077;-67
2023/07/01 08:44:31;;;;;;;;;;;;;;;23.36;51.00;100166.13;4985566;28;4124;-67
2023/07/01 08:46:58;;;;;;;;;;;;;;;23.37;51.26;100164.72;4986253;28;4017;-67
2023/07/01 08:49:24;;;;;;;;;;;;;;;23.38;51.57;100154.59;4984713;28;4832;-67
2023/07/01 08:51:51;;;;;;;;;;;;;;;23.38;51.99;100163.28;4985131;28;4353;-67
2023/07/01 08:54:18;;;;;;;;;;;;;;;23.39;51.85;100159.69;4985081;28;4115;-67
2023/07/01 08:56:48;;;;;;;;;;;;;;;23.39;52.12;100159.69;4996562;28;4162;-67
2023/07/01 08:59:14;;;;;;;;;;;;;;;23.40;52.41;100154.66;4991934;28;4173;-67
2023/07/01 09:01:41;;;;;;;;;;;;;;;23.39;52.63;100142.38;4992106;28;4227;-67
2023/07/01 09:04:08;;;;;;;;;;;;;;;23.42;52.80;100143.16;4995739;28;4101;-67
2023/07/01 09:06:34;;;;;;;;;;;;;;;23.41;52.88;100139.53;4994445;28;4348;-63
2023/07/01 09:09:01;;;;;;;;;;;;;;;23.41;53.32;100130.88;4987572;28;4512;-68
2023/07/01 09:11:28;;;;;;;;;;;;;;;23.42;53.07;100146.75;4991089;28;4294;-68
2023/07/01 09:13:55;;;;;;;;;;;;;;;23.44;53.37;100136.69;4986557;28;3989;-68
2023/07/01 09:16:34;;;;;;;;;;;;;;;23.44;53.68;100125.13;4987514;28;4123;-68
2023/07/01 09:19:02;;;;;;;;;;;;;;;23.45;53.50;100126.59;4989547;28;4132;-68
2023/07/01 09:21:31;;;;;;;;;;;;;;;23.46;53.64;100125.19;4992874;28;4110;-68
2023/07/01 09:23:57;;;;;;;;;;;;;;;23.45;53.83;100124.44;4991550;28;5283;-68
2023/07/01 09:26:24;;;;;;;;;;;;;;;23.46;53.88;100114.34;4992299;28;4133;-68
2023/07/01 09:28:51;;;;;;;;;;;;;;;23.47;54.19;100115.06;4989150;28;4022;-68
2023/07/01 09:31:17;;;;;;;;;;;;;;;23.49;54.05;100109.34;4987454;28;4460;-68
2023/07/01 09:34:05;;;;;;;;;;;;;;;23.49;54.37;100103.56;4989818;28;4038;-69
2023/07/01 09:36:32;;;;;;;;;;;;;;;23.50;54.53;100111.56;4989423;28;4121;-68
2023/07/01 09:39:00;;;;;;;;;;;;;;;23.51;54.38;100106.50;4992195;28;4118;-68
2023/07/01 09:41:27;;;;;;;;;;;;;;;23.52;54.53;100099.28;4992049;28;3946;-68
2023/07/01 09:43:54;;;;;;;;;;;;;;;23.51;54.68;100097.84;4990874;28;4283;-69
2023/07/01 09:46:21;;;;;;;;;;;;;;;23.52;54.90;100091.34;5003626;28;4116;-68
2023/07/01 09:48:54;;;;;;;;;;;;;;;23.53;54.67;100097.88;4990145;28;4408;-68
2023/07/01 09:51:26;;;;;;;;;;;;;;;23.53;54.60;100081.28;4991511;28;4182;-68
2023/07/01 09:53:52;;;;;;;;;;;;;;;23.55;54.66;100089.25;4991475;28;4152;-68
2023/07/01 09:56:19;;;;;;;;;;;;;;;23.55;54.89;100083.47;4991825;28;3979;-68
2023/07/01 09:58:45;;;;;;;;;;;;;;;23.56;55.02;100085.66;4991515;28;4028;-68
2023/07/01 10:01:12;;;;;;;;;;;;;;;23.57;54.85;100080.59;4985720;28;4035;-68
2023/07/01 10:03:39;;;;;;;;;;;;;;;23.58;55.00;100077.03;4993333;28;4116;-68
2023/07/01 10:06:05;;;;;;;;;;;;;;;23.58;55.22;100076.31;4992091;28;4154;-69
2023/07/01 10:08:33;;;;;;;;;;;;;;;23.59;55.07;100071.97;4991359;28;4257;-68
2023/07/01 10:11:09;;;;;;;;;;;;;;;23.59;55.39;100072.72;4988787;28;4158;-69
2023/07/01 10:13:46;;;;;;;;;;;;;;;23.60;55.16;100061.91;4988721;28;4090;-69
2023/07/01 10:16:13;;;;;;;;;;;;;;;23.60;55.45;100062.63;4996592;28;3996;-68
2023/07/01 10:18:39;;;;;;;;;;;;;;;23.60;55.34;100059.75;4986274;28;4246;-69
2023/07/01 10:21:24;;;;;;;;;;;;;;;23.62;55.21;100047.50;5005257;28;4236;-68
2023/07/01 10:23:51;;;;;;;;;;;;;;;23.61;55.52;100040.97;4989357;28;4043;-69
2023/07/01 10:26:36;;;;;;;;;;;;;;;23.62;55.66;100041.72;4993289;28;4230;-69
2023/07/01 10:29:21;;;;;;;;;;;;;;;23.62;55.78;100039.56;4990603;28;4020;-68
2023/07/01 10:32:06;;;;;;;;;;;;;;;23.62;55.60;100042.44;4991332;28;4003;-69
2023/07/01 10:34:51;;;;;;;;;;;;;;;23.64;55.54;100027.31;4991569;28;4075;-69
2023/07/01 10:37:18;;;;;;;;;;;;;;;23.65;55.46;100028.75;4989944;28;4106;-69
2023/07/01 10:39:44;;;;;;;;;;;;;;;23.61;55.84;100026.50;4987774;28;4160;-69
2023/07/01 10:42:33;;;;;;;;;;;;;;;23.67;55.86;100023.03;5004612;28;4024;-70
2023/07/01 10:45:12;;;;;;;;;;;;;;;23.68;57.38;100020.84;4991554;28;4160;-69
2023/07/01 10:47:38;;;;;;;;;;;;;;;23.66;57.66;100012.16;4988569;28;4118;-68
2023/07/01 10:50:08;;;;;;;;;;;;;;;23.67;58.00;100008.56;4990516;28;4249;-69
2023/07/01 10:52:53;;;;;;;;;;;;;;;23.70;57.79;99995.63;4988336;28;4095;-69
2023/07/01 10:55:44;;;;;;;;;;;;;;;23.69;57.83;99999.22;4986942;28;4009;-68
2023/07/01 10:58:21;;;;;;;;;;;;;;;23.71;57.94;99997.09;4985701;28;4012;-68
2023/07/01 11:00:48;;;;;;;;;;;;;;;23.71;58.03;99994.19;4992766;28;4182;-68
2023/07/01 11:03:36;;;;;;;;;;;;;;;23.71;58.01;99991.31;4992117;28;4044;-69
2023/07/01 11:06:04;;;;;;;;;;;;;;;23.73;58.23;99987.72;4990383;28;3986;-68
2023/07/01 11:08:32;;;;;;;;;;;;;;;23.75;58.20;99984.88;4988397;28;4367;-69
2023/07/01 11:10:58;;;;;;;;;;;;;;;23.74;58.36;99977.63;5007724;28;4158;-68
2023/07/01 11:13:25;;;;;;;;;;;;;;;23.75;58.46;99979.84;4985878;28;4048;-68
2023/07/01 11:15:59;;;;;;;;;;;;;;;23.75;58.51;99967.53;4986942;28;4015;-69
2023/07/01 11:18:41;;;;;;;;;;;;;;;23.76;58.91;99969.75;4984938;28;4130;-68
2023/07/01 11:21:08;;;;;;;;;;;;;;;23.75;59.09;99956.72;4984733;28;4165;-68
2023/07/01 11:23:35;;;;;;;;;;;;;;;23.79;58.65;99956.06;4988009;28;4540;-68
2023/07/01 11:26:01;;;;;;;;;;;;;;;23.78;58.97;99957.50;4984362;28;4159;-69
2023/07/01 11:28:34;;;;;;;;;;;;;;;23.81;58.64;99945.25;4987185;28;5440;-69
2023/07/01 11:31:20;;;;;;;;;;;;;;;23.82;58.74;99951.78;4990985;28;4132;-68
2023/07/01 11:33:53;;;;;;;;;;;;;;;23.80;58.73;99949.59;4990992;28;4116;-68
2023/07/01 11:36:20;;;;;;;;;;;;;;;23.81;59.03;99947.44;4994537;28;4147;-68
2023/07/01 11:38:47;;;;;;;;;;;;;;;23.80;59.16;99943.06;4987347;28;4199;-68
2023/07/01 11:41:14;;;;;;;;;;;;;;;23.80;59.15;99929.34;4985639;28;4131;-68
2023/07/01 11:43:41;;;;;;;;;;;;;;;23.85;58.88;99938.09;4989791;28;4159;-68
2023/07/01 11:46:08;;;;;;;;;;;;;;;23.82;59.20;99932.28;4991010;28;4157;-68
2023/07/01 11:48:34;;;;;;;;;;;;;;;23.83;58.83;99925.06;4988338;28;4489;-69
2023/07/01 11:51:01;;;;;;;;;;;;;;;23.85;59.05;99941.00;4989642;28;4207;-68
2023/07/01 11:53:27;;;;;;;;;;;;;;;23.83;59.28;99936.63;5004599;28;4360;-68
2023/07/01 11:55:56;;;;;;;;;;;;;;;23.85;58.96;99929.44;4987864;28;4266;-66
2023/07/01 11:58:32;;;;;;;;;;;;;;;23.88;58.88;99930.91;4987745;28;4166;-68
2023/07/01 12:00:58;;;;;;;;;;;;;;;23.85;59.16;99924.38;4987447;28;4153;-69
2023/07/01 12:03:30;;;;;;;;;;;;;;;23.87;59.11;99921.53;4987378;28;4043;-68
2023/07/01 12:05:57;;;;;;;;;;;;;;;23.89;58.86;99927.34;4988527;28;4519;-68
2023/07/01 12:08:23;;;;;;;;;;;;;;;23.91;59.00;99915.06;4988056;28;4620;-69
2023/07/01 12:10:49;;;;;;;;;;;;;;;23.93;58.74;99929.56;4989425;28;4156;-69
2023/07/01 12:13:29;;;;;;;;;;;;;;;23.92;59.21;99919.44;4985875;28;4122;-69
2023/07/01 12:15:57;;;;;;;;;;;;;;;23.92;59.10;99907.88;4986654;28;4142;-68
2023/07/01 12:18:27;;;;;;;;;;;;;;;23.90;59.14;99916.50;4988542;28;4164;-68
2023/07/01 12:20:56;;;;;;;;;;;;;;;23.93;58.91;99920.88;4984006;28;4117;-69
2023/07/01 12:23:22;;;;;;;;;;;;;;;23.91;58.74;99915.78;4988259;28;3951;-69
2023/07/01 12:25:49;;;;;;;;;;;;;;;23.92;58.85;99922.31;4986544;28;4155;-69
2023/07/01 12:28:17;;;;;;;;;;;;;;;23.93;58.68;99907.16;4985526;28;4080;-69
2023/07/01 12:30:44;;;;;;;;;;;;;;;23.94;58.47;99905.75;4987553;28;4047;-69
2023/07/01 12:33:10;;;;;;;;;;;;;;;23.94;58.64;99913.69;4988169;28;4039;-68
2023/07/01 12:35:38;;;;;;;;;;;;;;;23.94;58.75;99917.31;4989515;28;4010;-68
2023/07/01 12:38:09;;;;;;;;;;;;;;;23.96;58.42;99917.34;4984698;28;4206;-68
2023/07/01 12:40:36;;;;;;;;;;;;;;;23.97;58.38;99923.84;4977750;28;4230;-69
2023/07/01 12:43:02;;;;;;;;;;;;;;;23.96;56.59;99910.81;4985016;28;5076;-68
2023/07/01 12:45:29;;;;;;;;;;;;;;;24.03;55.36;99903.72;4985403;28;4021;-68
2023/07/01 12:47:56;;;;;;;;;;;;;;;23.99;55.59;99904.38;4984348;28;4228;-69
2023/07/01 12:50:23;;;;;;;;;;;;;;;24.01;55.27;99900.78;4984848;28;4058;-71